Weather observations for the past three days for
Pohnpei - NWS Office
Imperial (Metric)
Date Time (+11) Wind (mph) Vis. (mi.) Weather Sky Cond. Temperature (ºF) Relative Humidity Wind Chill (°F) Heat Index (°F) Pressure Precipitation (in)
Air Dwpt 6 hour altimeter (in) sea level (mb) 1 hr 3 hr 6 hr
Max. Min.
07 02:52 Calm 15.00 Overcast SCT018 BKN120 OVC300 78.6 76.6 94% 82 29.82 1009.9
07 01:51 Calm 15.00 Overcast SCT018 BKN120 OVC300 77 75 94% 78 29.84 1010.3
07 00:52 Calm 15.00 Overcast BKN018 OVC300 77 75.2 94% 78 29.85 1010.7
06 23:51 W 3 15.00 Mostly Cloudy SCT018 BKN300 77.9 76.1 94% 80 29.88 1011.9
06 22:53 W 3 15.00 Mostly Cloudy SCT018 BKN300 77.9 76.1 87.8 77.9 94% 80 29.89 1012.2
06 21:57 W 3 15.00 Mostly Cloudy SCT018 BKN300 77.9 76.6 96% 80 29.89 1012.2
06 20:53 W 3 15.00 Mostly Cloudy SCT018 BKN300 80.4 77.7 92% 87 29.88 1011.8
06 19:56 W 3 15.00 Mostly Cloudy SCT018 BKN300 80.4 77.7 92% 87 29.87 1011.6
06 18:56 W 3 15.00 Mostly Cloudy SCT018 BKN300 82.4 78.8 89% 92 29.86 1011.2
06 17:55 Calm 15.00 Mostly Cloudy SCT018 BKN300 84.2 78.8 84% 96 29.83 1010.0
06 16:50 W 3 15.00 Mostly Cloudy SCT018 BKN300 87.8 79.5 90.7 87.6 77% 103 29.81 1009.3
06 15:54 E 5 15.00 Mostly Cloudy SCT018 BKN300 87.6 79.3 77% 103 29.79 1008.9
06 14:51 E 8 15.00 Partly Cloudy FEW018 SCT300 88.9 79 73% 104 29.79 1008.9
06 13:50 NE 5 15.00 Partly Cloudy FEW018 SCT300 90.7 79.9 71% 108 29.81 1009.3
06 12:50 NE 6 15.00 Partly Cloudy FEW018 SCT300 89.6 79 71% 105 29.84 1010.6
06 11:50 E 8 15.00 Partly Cloudy FEW018 SCT300 89.6 80.8 75% 108 29.88 1011.7
06 09:53 E 5 15.00 Partly Cloudy FEW018 SCT300 88 78.8 74% 103 29.9 1012.4
06 08:50 E 3 15.00 A Few Clouds FEW018 FEW300 87.8 79.7 77% 104 29.9 1012.6
06 07:50 E 3 15.00 A Few Clouds FEW018 FEW300 80.8 78.4 93% 88 29.89 1012.1
06 06:54 E 3 15.00 Partly Cloudy SCT018 SCT300 76.8 75.9 97% 77 29.87 1011.4
06 03:53 E 3 15.00 A Few Clouds FEW018 FEW300 76.6 75.9 98% 77 29.84 1010.3
06 02:53 E 3 15.00 A Few Clouds FEW018 FEW300 77 76.5 98% 78 29.85 1010.7
06 01:55 Calm 15.00 Mostly Cloudy FEW018 BKN300 77.2 76.6 98% 78 29.87 1011.4 0.01
06 00:58 E 3 15.00 Partly Cloudy FEW018 SCT300 77.9 77.2 98% 80 29.89 1012.0
05 23:52 E 3 15.00 Mostly Cloudy SCT018 BKN300 78.4 77.5 97% 82 29.9 1012.6
05 22:50 E 3 12.00 Light Showers Rain SCT017TCU OVC130 79 78.4 84.2 79 98% 84 29.92 1013.0 0.12
05 21:55 E 5 15.00 Mostly Cloudy SCT018 BKN300 79.2 78.6 98% 84 29.91 1012.9
05 20:51 Calm 15.00 Light Rain SCT018 OVC120 80.2 78.6 95% 87 29.9 1012.6
05 19:52 Calm 15.00 Mostly Cloudy SCT018 BKN300 80.2 78.6 95% 87 29.89 1012.1 0.07
05 18:52 Calm 15.00 Overcast SCT018 BKN130 OVC300 80.6 79.3 96% 88 29.87 1011.4
05 17:52 N 3 15.00 Overcast SCT018 BKN130 OVC300 81.9 78.1 88% 91 29.85 1010.9
05 16:56 N 3 15.00 Overcast SCT018TCU BKN130 OVC300 84.2 79.3 89.2 82 85% 97 29.84 1010.4 0.32
05 15:52 W 3 15.00 Overcast SCT018 BKN130 OVC300 84.2 79.3 85% 97 29.83 1010.1
05 14:59 W 3 15.00 Overcast SCT018 BKN130 OVC300 82 80.1 94% 93 29.83 1010.2
05 13:59 W 3 12.00 Light Showers Rain BKN017TCU OVC120 82 80.1 94% 93 29.85 1010.8 0.32
05 12:56 W 3 15.00 Overcast SCT018 BKN130 OVC300 89.2 80.2 75% 107 29.87 1011.3
05 11:57 W 3 15.00 Overcast SCT018 BKN130 OVC300 87.6 80.8 80% 105 29.89 1012.2
05 10:51 Calm 15.00 Overcast SCT018 BKN130 OVC300 85.6 78.6 85.6 76.8 80% 99 29.92 1013.1 0.19
05 09:56 W 3 15.00 Overcast BKN017TCU OVC120 81.5 79 92% 90 29.91 1012.7
05 08:59 Calm 14.00 Overcast BKN017TCU OVC120 78.8 77.5 96% 83 29.93 1013.5
05 07:51 Calm 10.00 Light Showers Rain BKN017TCU OVC120 78.1 77.2 97% 81 29.92 1013.0 0.17
05 06:59 Calm 12.00 Light Showers Rain BKN016CB OVC110 77.2 76.3 97% 78 29.92 1013.3
05 05:53 S 2 10.00 Light Showers Rain BKN016CB OVC110 76.8 76.3 98% 77 29.91 1012.7
05 04:50 S 2 8.00 Light Showers Rain BKN016CB OVC110 77 76.5 80.6 77 98% 78 29.9 1012.5 0.32
05 03:50 N 2 12.00 Overcast BKN017TCU OVC120 77.4 76.8 98% 79 29.88 1011.9
05 02:50 Calm 15.00 Overcast BKN017TCU OVC130 80.6 77.9 92% 88 29.87 1011.3
05 01:50 Calm 15.00 Overcast BKN017TCU OVC130 80.1 78.1 94% 86 29.88 1011.7
05 00:50 Calm 15.00 Overcast BKN017TCU OVC130 79.2 78.3 97% 84 29.9 1012.6
04 23:50 S 2 15.00 Overcast BKN017TCU OVC130 78.6 77.4 96% 82 29.94 1013.8
04 22:55 Calm 15.00 Overcast SCT017 OVC120 77 76.5 78.8 77 98% 78 29.95 1014.1 0.81
04 21:51 Calm 15.00 Overcast BKN017TCU OVC120 77.2 76.8 99% 78 29.94 1013.9
04 20:55 Calm 10.00 Light Showers Rain BKN017TCU OVC120 77 76.6 99% 78 29.95 1014.3
04 19:55 W 3 10.00 Light Showers Rain BKN017TCU OVC120 77 76.5 98% 78 29.94 1014.0 0.8
04 18:59 W 6 10.00 Light Showers Rain BKN017TCU OVC120 77 76.1 97% 78 29.94 1014.0
04 17:53 N 5 5.00 Light Showers Rain BKN017TCU OVC120 77.4 76.5 97% 79 29.91 1012.9
04 16:55 Calm 15.00 Overcast SCT017TCU BKN120 OVC300 78.8 76.3 88.9 78.8 92% 83 29.87 1011.5 0.03
04 15:50 NW 7 14.00 Light Rain SCT017TCU OVC120 80.4 76.3 87% 86 29.88 1011.7
04 14:50 W 6 15.00 Light Rain SCT018 OVC130 84.4 78.3 82% 96 29.88 1011.8
04 13:51 N 6 15.00 Overcast SCT018 OVC130 86.2 78.8 79% 100 29.89 1012.2
04 12:50 N 6 15.00 Overcast SCT018 OVC130 86.4 78.4 77% 100 29.92 1013.0
04 11:50 N 8 15.00 Overcast SCT018 BKN130 OVC300 88.2 78.4 73% 102 29.91 1012.7
04 10:56 NW 3 15.00 Partly Cloudy SCT018 SCT300 88.9 80.2 88.9 78.6 76% 106 29.94 1013.8
04 09:55 W 5 15.00 Partly Cloudy SCT018 SCT300 88 80.2 78% 105 29.96 1014.4
04 08:56 SW 7 15.00 Partly Cloudy SCT018 SCT300 84.9 78.1 80% 97 29.97 1014.8
04 07:53 Calm 15.00 Mostly Cloudy SCT018 BKN300 83.3 78.4 85% 94 29.95 1014.3
04 06:55 Calm 15.00 Mostly Cloudy SCT018 BKN300 80.6 77.2 89% 87 29.94 1013.8
04 05:59 Calm 15.00 Mostly Cloudy SCT018 BKN300 78.6 77.5 97% 82 29.93 1013.6
04 04:50 Calm 15.00 Mostly Cloudy SCT018 BKN300 78.6 77.5 80.1 78.6 97% 82 29.92 1013.3
Date Time (+11) Wind (mph) Vis. (mi.) Weather Sky Cond. Air Dwpt Max. Min. Relative Humidity Wind Chill (°F) Heat Index (°F) altimeter (in) sea level (mb) 1 hr 3 hr 6 hr
6 hour
Temperature (ºF) Pressure Precipitation (in)